KFFL/FFL METAR and TAF weather

Enter ICAO airport designator
Station Type Date Time Source
KFFL METAR 2022/01/29 02:15 UTC NOAA

KFFL 290215Z AUTO 00000KT 10SM CLR M14/M18 A3037 RMK A01


Station Type Date Time Source
KFFL Decoded METAR 2022/01/29 02:15 UTC NOAA

Fair Field, IA, United States (KFFL) 41-03N 091-59W
Jan 28, 2022 - 09:15 PM EST / 2022.01.29 0215 UTC
Wind: Calm:0
Visibility: 10 mile(s):0
Sky conditions: clear
Temperature: 6 F (-14 C)
Dew Point: 0 F (-18 C)
Relative Humidity: 71%
Pressure (altimeter): 30.37 in. Hg (1028 hPa)
ob: KFFL 290215Z AUTO 00000KT 10SM CLR M14/M18 A3037 RMK A01
cycle: 2

Station Type Date Time Source
KFFL TAF UTC NOAA

Error!

Example: see airport list